Time;durP1;ratioP1;P1;durP2;ratioP2;P2;SDS_P1;SDS_P2;PMS_P1;PMS_P2;Temp;Humidity;BMP_temperature;BMP_pressure;BME280_temperature;BME280_humidity;BME280_pressure;Samples;Min_cycle;Max_cycle;Signal;HPM_P1;HPM_P2
2023/07/13 00:00:56;;;;;;;3.63;1.67;;;21.00;50.80;;;22.58;40.19;97618.28;5033942;28;20046;-54
2023/07/13 00:03:24;;;;;;;5.88;1.50;;;20.90;51.10;;;22.46;40.23;97612.06;5035135;28;20049;-55
2023/07/13 00:06:00;;;;;;;2.72;1.70;;;20.80;51.30;;;22.40;40.13;97603.00;5035274;28;20053;-52
2023/07/13 00:08:33;;;;;;;2.65;1.45;;;20.80;51.40;;;22.28;40.71;97600.31;5033913;28;20030;-54
2023/07/13 00:11:04;;;;;;;3.17;1.67;;;20.70;51.70;;;22.30;40.38;97605.50;5035014;28;20049;-51
2023/07/13 00:13:31;;;;;;;2.70;1.48;;;20.60;51.80;;;22.19;40.51;97607.94;5026886;28;20045;-51
2023/07/13 00:16:00;;;;;;;2.20;1.73;;;20.50;52.30;;;22.12;40.48;97614.53;5035033;28;20041;-55
2023/07/13 00:18:29;;;;;;;3.53;1.85;;;20.50;52.20;;;22.07;40.67;97606.31;5032836;28;20109;-55
2023/07/13 00:21:04;;;;;;;2.65;1.60;;;20.40;52.30;;;22.00;41.15;97609.13;5034027;28;20041;-52
2023/07/13 00:23:41;;;;;;;2.47;1.42;;;20.30;52.50;;;22.02;41.15;97597.00;5027245;28;20042;-55
2023/07/13 00:26:12;;;;;;;2.42;1.45;;;20.40;52.40;;;21.99;40.76;97594.75;5034586;28;20049;-55
2023/07/13 00:28:41;;;;;;;3.40;1.80;;;20.30;52.20;;;21.99;40.71;97593.94;5033233;28;20044;-55
2023/07/13 00:31:14;;;;;;;3.30;2.08;;;20.40;52.10;;;21.86;40.85;97594.97;5016668;28;20116;-53
2023/07/13 00:33:43;;;;;;;4.20;1.77;;;20.30;52.20;;;21.86;41.15;97592.25;5034755;28;20037;-54
2023/07/13 00:36:11;;;;;;;3.58;2.05;;;20.20;52.20;;;21.83;41.10;97592.75;5034564;28;20050;-52
2023/07/13 00:38:39;;;;;;;1.95;1.38;;;20.20;52.20;;;21.87;40.85;97593.06;5033367;28;20056;-52
2023/07/13 00:41:08;;;;;;;2.17;1.75;;;20.20;52.00;;;21.91;40.80;97597.00;5033099;28;20061;-55
2023/07/13 00:43:36;;;;;;;5.90;1.60;;;20.30;52.00;;;21.83;40.57;97580.03;5025727;28;20046;-53
2023/07/13 00:46:17;;;;;;;2.60;1.60;;;20.20;51.70;;;21.65;41.19;97582.81;5034538;28;20049;-52
2023/07/13 00:48:48;;;;;;;3.78;1.30;;;20.10;52.00;;;21.62;40.91;97591.44;5027555;28;20038;-55
2023/07/13 00:51:21;;;;;;;3.58;1.42;;;20.00;52.30;;;21.50;41.27;97586.00;5033896;28;20504;-54
2023/07/13 00:53:52;;;;;;;3.08;1.80;;;20.10;52.00;;;21.51;41.05;97590.34;5033260;28;20509;-54
2023/07/13 00:56:21;;;;;;;2.20;1.80;;;20.00;52.20;;;21.48;41.35;97592.69;5032681;28;20054;-54
2023/07/13 00:58:49;;;;;;;2.50;2.10;;;20.00;52.60;;;21.50;41.49;97594.13;5032883;28;20061;-52
2023/07/13 01:01:18;;;;;;;2.72;1.80;;;19.90;52.50;;;21.52;41.41;97593.84;5017026;28;20054;-55
2023/07/13 01:03:46;;;;;;;2.72;1.90;;;19.90;52.50;;;21.39;41.69;97597.59;5032885;28;20049;-52
2023/07/13 01:06:14;;;;;;;3.05;1.65;;;19.90;52.70;;;21.42;41.33;97603.38;5034113;28;20045;-53
2023/07/13 01:08:42;;;;;;;3.30;1.95;;;19.80;53.00;;;21.35;41.44;97589.09;5032356;28;20065;-55
2023/07/13 01:11:11;;;;;;;4.47;2.58;;;19.80;53.00;;;21.33;41.70;97598.53;5032276;28;20042;-53
2023/07/13 01:13:38;;;;;;;4.80;1.52;;;19.70;53.10;;;21.32;41.45;97592.25;5032656;28;20045;-51
2023/07/13 01:16:25;;;;;;;4.25;1.98;;;19.70;53.20;;;21.39;41.59;97603.81;5032458;28;20058;-52
2023/07/13 01:18:57;;;;;;;4.38;1.85;;;19.80;53.30;;;21.34;41.67;97592.03;5027449;28;20050;-53
2023/07/13 01:21:27;;;;;;;3.90;1.60;;;19.70;53.50;;;21.35;41.84;97594.50;5032486;28;20053;-49
2023/07/13 01:23:55;;;;;;;2.63;1.75;;;19.70;53.50;;;21.31;41.74;97595.22;5016014;28;20061;-54
2023/07/13 01:26:23;;;;;;;3.78;2.25;;;19.60;53.80;;;21.24;42.07;97595.31;5031335;28;20060;-55
2023/07/13 01:28:50;;;;;;;3.40;1.63;;;19.60;54.10;;;21.17;42.07;97587.28;5032628;28;20045;-56
2023/07/13 01:31:18;;;;;;;3.22;1.77;;;19.50;54.00;;;21.10;42.47;97594.66;5033322;28;20045;-54
2023/07/13 01:33:45;;;;;;;6.20;1.63;;;19.50;54.00;;;21.08;42.58;97596.78;5033564;28;20041;-52
2023/07/13 01:36:13;;;;;;;3.13;1.85;;;19.50;54.10;;;20.95;42.66;97602.38;5032198;28;20497;-55
2023/07/13 01:38:41;;;;;;;3.60;1.60;;;19.40;54.50;;;20.90;42.63;97597.66;5033331;28;20053;-53
2023/07/13 01:41:12;;;;;;;3.75;1.70;;;19.40;54.80;;;20.90;42.83;97594.09;5032168;28;20061;-53
2023/07/13 01:43:39;;;;;;;1.88;1.35;;;19.30;55.10;;;20.90;42.74;97594.09;5032473;28;20425;-49
2023/07/13 01:46:07;;;;;;;4.78;2.03;;;19.20;54.90;;;20.89;42.79;97596.00;5033363;28;20044;-52
2023/07/13 01:48:51;;;;;;;1.90;1.40;;;19.30;54.80;;;20.88;42.65;97602.47;5025575;28;20048;-53
2023/07/13 01:51:19;;;;;;;2.78;1.75;;;19.30;55.00;;;20.83;43.15;97605.03;5031570;28;20261;-54
2023/07/13 01:53:47;;;;;;;4.00;1.92;;;19.20;55.10;;;20.84;43.09;97607.50;5014988;28;20048;-52
2023/07/13 01:56:14;;;;;;;5.88;2.22;;;19.20;55.40;;;20.80;42.90;97608.19;5033169;28;20045;-54
2023/07/13 01:58:42;;;;;;;3.42;1.77;;;19.10;55.70;;;20.78;43.09;97608.44;5023780;28;20045;-55
2023/07/13 02:01:10;;;;;;;3.47;1.95;;;19.10;55.60;;;20.77;43.04;97595.94;5031789;28;20080;-51
2023/07/13 02:03:37;;;;;;;3.90;1.80;;;19.00;55.60;;;20.77;43.05;97601.34;5024702;28;20049;-54
2023/07/13 02:06:06;;;;;;;2.53;1.70;;;19.00;55.60;;;20.70;43.16;97602.50;5031696;28;20037;-51
2023/07/13 02:08:33;;;;;;;3.25;1.50;;;19.00;56.00;;;20.68;43.24;97602.72;5014929;28;20056;-51
2023/07/13 02:11:03;;;;;;;4.28;1.55;;;19.00;56.10;;;20.66;43.46;97602.13;5032504;28;20040;-54
2023/07/13 02:13:31;;;;;;;4.30;1.83;;;18.90;56.40;;;20.66;43.43;97604.81;5031455;28;20068;-50
2023/07/13 02:15:59;;;;;;;2.65;1.60;;;18.90;56.40;;;20.52;43.84;97603.31;5032100;28;20037;-54
2023/07/13 02:18:26;;;;;;;4.57;2.15;;;18.80;56.80;;;20.54;43.84;97610.13;5031708;28;20053;-55
2023/07/13 02:20:55;;;;;;;4.03;1.80;;;18.70;56.80;;;20.53;43.83;97613.06;5030964;28;20045;-53
2023/07/13 02:23:23;;;;;;;4.22;1.83;;;18.70;57.20;;;20.45;43.97;97620.44;5032503;28;20045;-55
2023/07/13 02:25:56;;;;;;;5.43;1.65;;;18.70;57.20;;;20.47;43.83;97622.88;5031256;28;20054;-50
2023/07/13 02:28:24;;;;;;;3.33;1.70;;;18.60;57.40;;;20.48;43.70;97618.34;5032478;28;20049;-51
2023/07/13 02:30:52;;;;;;;4.65;2.25;;;18.60;57.10;;;20.49;44.06;97622.66;5032030;28;20037;-55
2023/07/13 02:33:20;;;;;;;2.60;2.40;;;18.70;57.10;;;20.52;44.04;97627.63;5030474;28;20046;-54
2023/07/13 02:35:48;;;;;;;3.67;1.65;;;18.80;57.00;;;20.54;43.83;97622.84;5031339;28;20038;-54
2023/07/13 02:38:16;;;;;;;3.85;1.98;;;18.80;56.90;;;20.57;43.84;97627.78;5031278;28;20049;-54
2023/07/13 02:40:43;;;;;;;3.75;2.30;;;18.80;56.70;;;20.52;43.59;97627.63;5031287;28;20046;-50
2023/07/13 02:43:12;;;;;;;2.15;1.60;;;18.70;57.00;;;20.50;43.78;97627.03;5032267;28;20520;-55
2023/07/13 02:45:45;;;;;;;2.33;1.88;;;18.70;57.30;;;20.49;43.77;97626.22;5031429;28;20432;-53
2023/07/13 02:48:14;;;;;;;3.28;1.92;;;18.70;57.10;;;20.48;43.90;97642.66;5030679;28;20060;-55
2023/07/13 02:50:41;;;;;;;3.60;2.45;;;18.70;57.20;;;20.49;43.90;97644.31;5032030;28;20436;-54
2023/07/13 02:53:09;;;;;;;3.72;1.70;;;18.70;57.00;;;20.49;43.69;97647.84;5032031;28;20038;-52
2023/07/13 02:55:37;;;;;;;4.88;1.70;;;18.70;57.00;;;20.49;43.94;97639.75;5031875;28;20048;-55
2023/07/13 02:58:05;;;;;;;3.80;1.95;;;18.70;56.90;;;20.46;43.90;97634.78;5014444;28;20056;-53
2023/07/13 03:00:34;;;;;;;1.75;1.52;;;18.60;57.20;;;20.43;43.81;97638.75;5031466;28;20420;-56
2023/07/13 03:03:01;;;;;;;4.70;1.60;;;18.60;57.30;;;20.44;44.13;97636.88;5014202;28;20056;-55
2023/07/13 03:05:29;;;;;;;3.85;1.70;;;18.60;57.20;;;20.39;44.11;97640.22;5030097;28;20049;-52
2023/07/13 03:07:57;;;;;;;2.30;1.60;;;18.60;57.50;;;20.39;44.02;97637.53;5029782;28;20050;-54
2023/07/13 03:10:25;;;;;;;4.68;1.90;;;18.50;57.40;;;20.38;44.11;97641.31;5030256;28;20048;-54
2023/07/13 03:12:53;;;;;;;2.55;2.20;;;18.50;57.90;;;20.38;44.33;97646.72;5030430;28;20061;-52
2023/07/13 03:15:24;;;;;;;4.15;2.10;;;18.50;57.80;;;20.37;44.37;97644.22;5030723;28;20504;-54
2023/07/13 03:17:54;;;;;;;4.70;2.80;;;18.50;57.80;;;20.36;44.20;97645.28;5030297;28;20500;-54
2023/07/13 03:20:22;;;;;;;3.50;1.80;;;18.50;57.80;;;20.32;44.60;97638.69;5027472;28;20045;-54
2023/07/13 03:22:51;;;;;;;3.72;1.63;;;18.50;58.30;;;20.31;44.50;97647.81;5023618;28;20033;-54
2023/07/13 03:25:19;;;;;;;3.70;1.90;;;18.50;58.50;;;20.26;44.67;97646.63;5031603;28;20049;-52
2023/07/13 03:27:47;;;;;;;5.03;2.53;;;18.40;58.90;;;20.24;44.82;97651.44;5029204;28;20052;-55
2023/07/13 03:30:14;;;;;;;3.42;1.75;;;18.30;58.70;;;20.26;44.53;97653.91;5013420;28;20425;-54
2023/07/13 03:32:44;;;;;;;3.78;2.08;;;18.30;58.50;;;20.24;44.63;97659.53;5030213;28;20409;-55
2023/07/13 03:35:11;;;;;;;2.22;1.77;;;18.30;58.40;;;20.21;44.89;97656.44;5031364;28;20045;-52
2023/07/13 03:37:42;;;;;;;2.55;2.08;;;18.30;58.70;;;20.18;44.69;97662.28;5029935;28;20049;-55
2023/07/13 03:40:14;;;;;;;5.45;2.45;;;18.30;58.70;;;20.14;44.73;97666.47;5030018;28;20398;-54
2023/07/13 03:42:44;;;;;;;5.75;1.80;;;18.20;58.60;;;20.10;44.83;97668.81;5031092;28;20049;-52
2023/07/13 03:45:15;;;;;;;3.58;2.03;;;18.20;58.70;;;20.06;44.79;97668.44;5030446;28;20056;-55
2023/07/13 03:47:42;;;;;;;3.85;1.70;;;18.20;58.90;;;20.05;44.93;97677.59;5030995;28;20050;-55
2023/07/13 03:50:11;;;;;;;2.92;1.88;;;18.20;59.00;;;20.02;44.82;97680.72;5029357;28;20384;-54
2023/07/13 03:52:39;;;;;;;3.05;2.00;;;18.10;59.00;;;20.00;44.97;97676.59;5029548;28;20417;-54
2023/07/13 03:55:07;;;;;;;4.35;1.77;;;18.10;59.00;;;20.00;45.05;97682.81;5013812;28;20053;-54
2023/07/13 03:57:34;;;;;;;2.25;1.60;;;18.10;59.10;;;20.00;45.10;97687.41;5030014;28;20045;-55
2023/07/13 04:00:06;;;;;;;3.67;1.77;;;18.10;59.00;;;19.99;45.12;97689.28;5029618;28;20065;-54
2023/07/13 04:02:42;;;;;;;2.53;1.48;;;18.20;59.10;;;19.98;44.87;97689.50;5031248;28;20053;-54
2023/07/13 04:05:10;;;;;;;3.50;1.77;;;18.10;58.80;;;19.99;44.77;97689.28;5030344;28;20049;-52
2023/07/13 04:07:37;;;;;;;3.55;1.85;;;18.20;58.60;;;19.98;44.85;97693.00;5029954;28;20060;-55
2023/07/13 04:10:08;;;;;;;1.95;1.73;;;18.20;58.50;;;20.01;44.97;97692.59;5029580;28;20052;-52
2023/07/13 04:12:36;;;;;;;3.80;1.73;;;18.20;58.20;;;20.04;44.77;97699.41;5029300;28;20054;-51
2023/07/13 04:15:04;;;;;;;3.83;1.75;;;18.30;58.10;;;20.04;44.63;97697.53;5031008;28;20038;-55
2023/07/13 04:17:32;;;;;;;6.97;2.00;;;18.30;57.90;;;20.04;44.66;97694.00;5030828;28;20076;-54
2023/07/13 04:19:59;;;;;;;3.30;2.88;;;18.30;58.00;;;20.06;44.69;97694.63;5030887;28;20056;-52
2023/07/13 04:22:27;;;;;;;3.83;1.55;;;18.30;58.00;;;20.08;44.62;97697.91;5029892;28;20054;-55
2023/07/13 04:24:55;;;;;;;4.20;2.00;;;18.30;57.70;;;20.09;44.68;97699.59;5031051;28;20041;-52
2023/07/13 04:27:22;;;;;;;7.38;1.80;;;18.30;57.90;;;20.10;44.62;97700.41;5045986;28;20037;-52
2023/07/13 04:29:52;;;;;;;3.40;1.70;;;18.30;57.70;;;20.09;44.89;97699.59;5030519;28;20038;-54
2023/07/13 04:32:20;;;;;;;2.47;2.22;;;18.30;58.00;;;20.09;44.76;97696.88;5030584;28;20049;-54
2023/07/13 04:34:53;;;;;;;3.72;1.90;;;18.30;57.90;;;20.12;44.58;97706.41;5029112;28;20048;-53
2023/07/13 04:37:20;;;;;;;3.33;1.92;;;18.30;57.60;;;20.11;44.49;97700.19;5030613;28;20053;-56
2023/07/13 04:39:48;;;;;;;4.60;2.20;;;18.30;57.70;;;20.13;44.46;97700.81;5033642;28;20053;-56
2023/07/13 04:42:15;;;;;;;3.05;1.85;;;18.30;57.60;;;20.14;44.39;97704.31;5033446;28;20057;-55
2023/07/13 04:44:51;;;;;;;2.65;1.80;;;18.30;57.50;;;20.10;44.47;97701.22;5034343;28;20069;-54
2023/07/13 04:47:19;;;;;;;3.22;1.98;;;18.30;57.70;;;20.09;44.60;97698.78;5034344;28;20046;-54
2023/07/13 04:49:46;;;;;;;3.35;2.08;;;18.30;57.60;;;20.10;44.69;97698.53;5034067;28;20389;-54
2023/07/13 04:52:14;;;;;;;3.55;2.17;;;18.30;57.70;;;20.12;44.56;97706.41;5034083;28;20519;-54
2023/07/13 04:54:42;;;;;;;4.55;2.30;;;18.30;57.50;;;20.13;44.74;97708.09;5034046;28;20048;-53
2023/07/13 04:57:09;;;;;;;4.03;2.00;;;18.30;57.60;;;20.15;44.80;97703.28;5034311;28;20072;-52
2023/07/13 04:59:37;;;;;;;3.00;2.00;;;18.40;57.60;;;20.18;44.42;97710.94;5034046;28;20551;-54
2023/07/13 05:02:05;;;;;;;4.78;2.17;;;18.50;57.50;;;20.20;44.35;97708.84;5033763;28;20049;-55
2023/07/13 05:04:33;;;;;;;4.72;1.88;;;18.50;57.20;;;20.25;44.71;97704.41;5034103;28;20056;-55
2023/07/13 05:07:00;;;;;;;4.75;1.83;;;18.60;56.90;;;20.30;44.35;97714.59;5032832;28;20413;-56
2023/07/13 05:09:28;;;;;;;5.18;2.05;;;18.60;56.40;;;20.33;44.13;97711.41;5033787;28;20488;-56
2023/07/13 05:11:55;;;;;;;2.83;1.85;;;18.70;56.30;;;20.35;43.82;97709.31;5033589;28;20041;-55
2023/07/13 05:14:23;;;;;;;5.57;2.00;;;18.70;55.90;;;20.39;43.55;97710.53;5033707;28;20045;-53
2023/07/13 05:16:50;;;;;;;3.25;1.95;;;18.80;55.50;;;20.43;43.19;97721.72;5033772;28;20045;-52
2023/07/13 05:19:18;;;;;;;2.75;1.70;;;18.80;54.50;;;20.46;43.29;97722.13;5033764;28;20049;-53
2023/07/13 05:21:46;;;;;;;3.60;1.85;;;18.90;55.00;;;20.51;43.35;97718.75;5032523;28;20050;-55
2023/07/13 05:24:13;;;;;;;2.53;2.22;;;18.90;54.50;;;20.53;43.14;97727.47;5033679;28;20049;-55
2023/07/13 05:26:53;;;;;;;2.38;1.90;;;18.90;54.50;;;20.54;43.29;97729.13;5032324;28;20049;-52
2023/07/13 05:29:22;;;;;;;3.47;1.88;;;18.90;54.50;;;20.59;43.28;97720.34;5033431;28;20049;-51
2023/07/13 05:31:49;;;;;;;2.00;1.70;;;19.00;54.50;;;20.61;42.97;97716.41;5032142;28;20071;-53
2023/07/13 05:34:17;;;;;;;3.80;2.00;;;19.00;54.30;;;20.68;42.71;97729.84;5033170;28;20271;-54
2023/07/13 05:36:45;;;;;;;3.47;1.77;;;19.10;54.50;;;20.70;42.81;97725.03;5033363;28;20042;-52
2023/07/13 05:39:12;;;;;;;2.95;1.77;;;19.00;54.90;;;20.74;42.69;97726.22;5033433;28;20189;-54
2023/07/13 05:41:40;;;;;;;2.85;1.98;;;19.10;54.00;;;20.75;42.73;97730.59;5032640;28;20501;-57
2023/07/13 05:44:08;;;;;;;1.52;1.42;;;19.10;53.90;;;20.76;42.38;97717.91;5033362;28;20052;-54
2023/07/13 05:46:35;;;;;;;3.03;1.90;;;19.10;53.90;;;20.80;42.68;97725.34;5032995;28;20420;-54
2023/07/13 05:49:03;;;;;;;2.78;1.98;;;19.20;53.70;;;20.85;42.83;97730.91;5033017;28;20497;-55
2023/07/13 05:51:31;;;;;;;4.45;2.30;;;19.30;53.60;;;20.88;42.38;97731.50;5032014;28;20056;-52
2023/07/13 05:53:58;;;;;;;4.82;1.80;;;19.30;53.40;;;20.91;42.37;97742.69;5032986;28;20049;-54
2023/07/13 05:56:26;;;;;;;2.10;1.90;;;19.30;53.30;;;20.94;42.30;97736.84;5032771;28;20045;-54
2023/07/13 05:58:54;;;;;;;3.05;1.92;;;19.30;53.20;;;20.97;42.49;97740.97;5032691;28;20046;-53
2023/07/13 06:01:23;;;;;;;4.28;2.00;;;19.40;53.40;;;21.03;42.41;97738.22;5032441;28;20060;-54
2023/07/13 06:03:51;;;;;;;3.20;2.40;;;19.40;53.10;;;21.11;42.03;97741.66;5033097;28;20060;-52
2023/07/13 06:06:18;;;;;;;3.40;1.95;;;19.50;52.60;;;21.15;41.88;97741.00;5032974;28;20048;-54
2023/07/13 06:08:46;;;;;;;5.40;2.63;;;19.60;52.20;;;21.17;41.79;97748.84;5032631;28;20064;-53
2023/07/13 06:11:23;;;;;;;3.28;2.85;;;19.60;51.90;;;21.16;41.32;97750.75;5032992;28;20046;-55
2023/07/13 06:13:51;;;;;;;3.10;2.03;;;19.60;50.10;;;21.18;41.22;97754.06;5031527;28;20041;-54
2023/07/13 06:16:20;;;;;;;3.33;2.20;;;19.70;51.30;;;21.17;40.91;97754.28;5032525;28;20045;-55
2023/07/13 06:18:47;;;;;;;3.08;1.95;;;19.60;51.20;;;21.14;41.29;97762.88;5031344;28;20045;-55
2023/07/13 06:21:20;;;;;;;2.83;2.03;;;19.50;51.80;;;21.17;41.33;97763.25;5028381;28;20049;-55
2023/07/13 06:23:50;;;;;;;2.97;2.00;;;19.60;51.60;;;21.19;41.67;97768.41;5032540;28;20394;-53
2023/07/13 06:26:20;;;;;;;3.22;2.10;;;19.60;51.80;;;21.23;41.16;97769.63;5014247;28;20052;-52
2023/07/13 06:28:48;;;;;;;5.93;2.10;;;19.70;51.40;;;21.24;41.40;97766.69;5030993;28;20060;-52
2023/07/13 06:31:15;;;;;;;3.75;1.90;;;19.70;51.60;;;21.25;41.29;97770.22;5031836;28;20046;-55
2023/07/13 06:33:44;;;;;;;4.18;2.15;;;19.70;51.20;;;21.25;40.94;97770.22;5028586;28;20045;-55
2023/07/13 06:36:12;;;;;;;3.53;1.85;;;19.70;51.20;;;21.24;41.02;97774.78;5032077;28;20046;-56
2023/07/13 06:38:39;;;;;;;3.80;1.80;;;19.60;51.40;;;21.24;41.71;97773.97;5031986;28;20492;-56
2023/07/13 06:41:08;;;;;;;2.38;1.73;;;19.60;51.80;;;21.30;41.59;97780.38;5030699;28;20049;-54
2023/07/13 06:43:36;;;;;;;3.88;1.63;;;19.70;52.10;;;21.29;40.73;97774.13;5032738;28;20084;-54
2023/07/13 06:46:04;;;;;;;2.80;1.98;;;19.80;50.90;;;21.29;40.82;97786.84;5032094;28;20041;-52
2023/07/13 06:48:31;;;;;;;3.75;2.45;;;19.80;50.30;;;21.33;41.08;97785.34;5032207;28;20056;-54
2023/07/13 06:50:59;;;;;;;3.67;1.88;;;19.80;51.00;;;21.32;40.13;97791.78;5031484;28;20049;-50
2023/07/13 06:53:27;;;;;;;3.33;1.55;;;19.80;49.80;;;21.30;40.50;97797.44;5032077;28;20053;-55
2023/07/13 06:55:54;;;;;;;2.60;2.10;;;19.80;50.20;;;21.32;40.22;97798.03;5031980;28;20045;-53
2023/07/13 06:58:22;;;;;;;4.50;1.80;;;19.80;50.00;;;21.36;40.24;97801.13;5032013;28;20045;-50
2023/07/13 07:00:52;;;;;;;3.72;1.88;;;19.80;49.80;;;21.39;40.35;97797.97;5030196;28;20052;-52
2023/07/13 07:03:20;;;;;;;3.50;2.47;;;19.80;49.50;;;21.41;40.08;97795.88;5030732;28;20053;-52
2023/07/13 07:05:48;;;;;;;3.08;1.88;;;19.90;49.50;;;21.47;40.01;97797.69;5031778;28;20045;-55
2023/07/13 07:08:15;;;;;;;3.00;1.85;;;20.00;49.30;;;21.52;39.75;97808.69;5031691;28;20049;-53
2023/07/13 07:10:43;;;;;;;2.40;1.52;;;20.10;49.10;;;21.56;40.21;97815.28;5031412;28;20042;-53
2023/07/13 07:13:11;;;;;;;3.50;2.00;;;20.20;49.10;;;21.60;39.60;97802.13;5031960;28;20504;-52
2023/07/13 07:15:38;;;;;;;3.38;1.92;;;20.20;48.50;;;21.62;39.73;97802.72;5031615;28;20041;-53
2023/07/13 07:18:06;;;;;;;3.45;1.85;;;20.20;48.20;;;21.60;39.64;97804.81;5029965;28;20274;-55
2023/07/13 07:20:34;;;;;;;2.67;1.88;;;20.20;48.40;;;21.53;39.16;97810.31;5031299;28;20037;-52
2023/07/13 07:23:02;;;;;;;3.63;1.90;;;20.20;47.70;;;21.45;39.45;97807.09;5030813;28;20037;-50
2023/07/13 07:25:31;;;;;;;2.67;1.70;;;20.10;48.00;;;21.48;39.88;97810.19;5030380;28;20519;-50
2023/07/13 07:27:59;;;;;;;4.07;2.05;;;20.10;48.50;;;21.54;40.03;97811.13;5031359;28;20041;-52
2023/07/13 07:30:30;;;;;;;2.03;1.50;;;20.20;48.50;;;21.56;38.18;97809.06;5030693;28;20408;-51
2023/07/13 07:33:01;;;;;;;3.28;2.55;;;20.20;45.40;;;21.57;38.78;97807.97;5015124;28;20042;-50
2023/07/13 07:35:32;;;;;;;3.45;1.90;;;20.30;46.30;;;21.58;38.32;97801.53;5024380;28;20045;-54
2023/07/13 07:38:05;;;;;;;4.18;1.60;;;20.30;46.20;;;21.62;38.57;97806.25;5024792;28;20060;-53
2023/07/13 07:40:38;;;;;;;2.13;1.80;;;20.40;46.40;;;21.69;38.73;97806.16;5023609;28;20057;-50
2023/07/13 07:43:10;;;;;;;3.45;2.13;;;20.40;46.30;;;21.78;38.28;97806.66;5022194;28;20061;-49
2023/07/13 07:45:39;;;;;;;2.13;1.48;;;20.50;45.70;;;21.78;37.48;97807.50;5024821;28;20050;-50
2023/07/13 07:48:09;;;;;;;4.07;1.95;;;20.50;44.60;;;21.81;37.77;97808.94;5026305;28;20052;-51
2023/07/13 07:50:38;;;;;;;3.03;1.77;;;20.60;45.10;;;21.89;38.09;97805.03;5024980;28;20054;-48
2023/07/13 07:53:07;;;;;;;3.03;2.33;;;20.70;45.70;;;21.94;38.24;97806.00;5024228;28;20505;-51
2023/07/13 07:55:35;;;;;;;4.70;2.25;;;20.70;45.70;;;21.93;37.76;97796.25;5024907;28;20049;-51
2023/07/13 07:58:06;;;;;;;1.88;1.60;;;20.70;45.40;;;22.00;38.16;97802.41;5025109;28;20053;-53
2023/07/13 08:00:54;;;;;;;4.00;2.03;;;20.80;46.00;;;21.94;37.40;97803.31;5023535;28;20045;-52
2023/07/13 08:03:24;;;;;;;2.50;1.88;;;20.80;44.30;;;22.00;37.30;97801.56;5021692;28;20041;-47
2023/07/13 08:05:55;;;;;;;2.10;1.50;;;20.80;43.60;;;22.07;36.25;97806.91;5024245;28;20050;-49
2023/07/13 08:08:25;;;;;;;1.60;1.40;;;20.90;42.90;;;22.14;36.68;97803.03;5023707;28;20041;-51
2023/07/13 08:10:53;;;;;;;3.47;1.20;;;20.90;43.30;;;22.22;36.60;97812.72;5025146;28;20052;-52
2023/07/13 08:13:26;;;;;;;1.50;1.38;;;21.00;42.90;;;22.27;35.36;97810.16;5025774;28;20044;-51
2023/07/13 08:15:53;;;;;;;3.20;1.90;;;21.20;40.40;;;22.33;35.16;97817.38;5030555;28;20425;-48
2023/07/13 08:18:21;;;;;;;2.03;1.55;;;21.30;40.10;;;22.37;35.52;97809.56;5029813;28;20041;-48
2023/07/13 08:20:49;;;;;;;7.00;2.30;;;21.30;41.10;;;22.45;34.94;97811.13;5029101;28;20049;-52
2023/07/13 08:23:17;;;;;;;1.52;1.30;;;21.40;40.30;;;22.47;35.72;97818.00;5028989;28;20497;-47
2023/07/13 08:25:54;;;;;;;3.08;1.55;;;21.50;41.40;;;22.47;35.72;97815.28;5029094;28;20060;-51
2023/07/13 08:28:22;;;;;;;5.00;1.60;;;21.50;41.00;;;22.54;35.29;97815.16;5029662;28;20057;-52
2023/07/13 08:30:50;;;;;;;2.90;1.85;;;21.50;41.10;;;22.57;35.47;97820.94;5028887;28;20056;-51
2023/07/13 08:33:20;;;;;;;2.20;1.52;;;21.60;41.00;;;22.65;35.14;97813.53;5026875;28;20049;-51
2023/07/13 08:35:48;;;;;;;3.55;2.00;;;21.70;41.10;;;22.70;35.37;97810.91;5025559;28;20045;-51
2023/07/13 08:38:17;;;;;;;5.57;1.85;;;21.60;41.30;;;22.67;35.20;97812.22;5028871;28;20713;-52
2023/07/13 08:40:55;;;;;;;5.97;2.08;;;21.60;40.80;;;22.72;34.94;97815.06;5027491;28;20037;-50
2023/07/13 08:43:35;;;;;;;2.15;1.38;;;21.70;39.60;;;22.76;34.79;97808.09;5028066;28;20060;-52
2023/07/13 08:46:16;;;;;;;2.05;1.40;;;21.70;40.50;;;22.74;34.76;97820.22;5011523;28;20045;-50
2023/07/13 08:48:55;;;;;;;2.13;1.50;;;21.70;39.80;;;22.76;35.22;97815.41;5026719;28;20048;-49
2023/07/13 08:51:49;;;;;;;3.35;1.83;;;21.80;40.50;;;22.87;35.01;97806.44;5025947;28;20565;-50
2023/07/13 08:54:29;;;;;;;2.08;1.73;;;21.90;40.10;;;22.96;35.04;97817.78;5025276;28;20525;-49
2023/07/13 08:57:00;;;;;;;2.40;1.70;;;22.00;40.70;;;22.98;35.00;97815.66;5027278;28;20049;-49
2023/07/13 08:59:33;;;;;;;3.17;1.52;;;22.00;40.50;;;23.06;35.03;97814.50;5028541;28;20029;-52
2023/07/13 09:02:25;;;;;;;2.03;1.70;;;22.00;40.60;;;22.96;34.75;97820.50;5010089;28;20076;-53
2023/07/13 09:05:08;;;;;;;2.70;2.03;;;22.00;40.00;;;23.10;34.88;97813.78;5024702;28;20053;-49
2023/07/13 09:08:26;;;;;;;3.35;1.92;;;22.00;40.30;;;22.95;34.35;97824.25;5011571;28;20057;-53
2023/07/13 09:11:12;;;;;;;3.47;1.63;;;22.10;40.60;;;23.12;34.97;97817.06;5026849;28;20105;-51
2023/07/13 09:14:20;;;;;;;4.00;1.77;;;22.10;40.70;;;23.18;35.11;97823.44;5026295;28;20034;-47
2023/07/13 09:16:49;;;;;;;4.00;1.70;;;22.10;40.50;;;23.27;34.39;97823.91;5027324;28;20054;-51
2023/07/13 09:19:26;;;;;;;2.85;2.08;;;22.30;39.20;;;23.26;34.09;97825.78;5032354;28;20045;-54
2023/07/13 09:21:56;;;;;;;2.92;1.60;;;22.30;39.30;;;23.28;34.30;97831.81;5028598;28;20044;-53
2023/07/13 09:24:50;;;;;;;2.45;1.70;;;22.30;39.30;;;23.16;33.56;97823.69;5031770;28;20050;-50
2023/07/13 09:27:24;;;;;;;3.67;1.58;;;22.20;38.30;;;23.21;34.09;97825.69;5033614;28;20473;-48
2023/07/13 09:30:37;;;;;;;5.60;1.92;;;22.20;39.10;;;23.30;34.16;97813.41;5033601;28;20049;-52
2023/07/13 09:33:05;;;;;;;2.85;1.83;;;22.30;38.80;;;23.42;33.96;97820.69;5030902;28;20041;-47
2023/07/13 09:35:35;;;;;;;3.00;1.45;;;22.30;38.60;;;23.44;33.84;97819.41;5024673;28;20045;-53
2023/07/13 09:38:18;;;;;;;3.85;1.77;;;22.40;39.40;;;23.46;33.57;97811.84;5033513;28;20041;-50
2023/07/13 09:41:27;;;;;;;4.72;2.08;;;22.40;37.80;;;23.49;33.12;97818.66;5026355;28;20049;-51
2023/07/13 09:44:11;;;;;;;3.75;1.73;;;22.40;37.40;;;23.52;33.57;97821.72;5026896;28;20049;-51
2023/07/13 09:46:52;;;;;;;2.53;1.60;;;22.50;38.50;;;23.52;33.64;97815.47;5028143;28;20049;-53
2023/07/13 09:49:25;;;;;;;3.72;2.00;;;22.60;38.60;;;23.57;33.41;97812.84;5025719;28;20072;-52
2023/07/13 09:52:05;;;;;;;;;;;22.60;38.20;;;23.67;33.78;97804.06;5028342;28;20045;-51
2023/07/13 09:54:35;;;;;;;4.20;1.98;;;22.70;38.20;;;23.82;33.77;97804.41;5027543;28;19921;-50
2023/07/13 09:57:16;;;;;;;2.92;1.30;;;22.80;38.80;;;23.69;33.10;97813.66;5027008;28;20406;-54
2023/07/13 09:59:49;;;;;;;3.45;2.25;;;22.80;37.70;;;23.82;33.28;97823.44;5027447;28;20049;-53
2023/07/13 10:02:33;;;;;;;4.55;2.00;;;22.90;38.30;;;23.93;33.35;97800.00;5026900;28;20052;-50
2023/07/13 10:05:10;;;;;;;3.92;1.88;;;23.00;38.00;;;24.07;33.54;97797.78;5024442;28;20044;-54
2023/07/13 10:07:43;;;;;;;2.10;1.75;;;23.10;38.60;;;24.09;33.34;97807.34;5027156;28;20041;-52
2023/07/13 10:10:22;;;;;;;4.85;1.92;;;23.20;37.80;;;24.04;32.57;97811.88;5026641;28;20520;-49
2023/07/13 10:12:51;;;;;;;3.10;1.80;;;23.20;36.60;;;24.17;32.47;97801.53;5026272;28;20041;-50
2023/07/13 10:15:25;;;;;;;2.72;1.85;;;23.20;36.70;;;24.20;32.22;97800.22;5025916;28;20413;-49
2023/07/13 10:17:56;;;;;;;3.67;2.10;;;23.20;36.50;;;24.22;31.98;97803.50;5013977;28;20048;-51
2023/07/13 10:20:27;;;;;;;6.68;1.75;;;23.30;36.60;;;24.18;31.09;97800.44;5031214;28;20449;-51
2023/07/13 10:23:10;;;;;;;2.17;1.77;;;23.30;34.60;;;24.17;31.60;97796.09;5031773;28;20042;-50
2023/07/13 10:25:44;;;;;;;3.30;1.80;;;23.30;35.60;;;24.29;31.78;97801.47;5032752;28;20045;-47
2023/07/13 10:28:37;;;;;;;3.22;1.50;;;23.40;36.10;;;24.20;31.77;97800.22;5030747;28;20440;-53
2023/07/13 10:31:12;;;;;;;4.90;1.70;;;23.50;35.20;;;24.36;31.84;97806.72;5031236;28;20046;-54
2023/07/13 10:33:40;;;;;;;3.15;2.15;;;23.60;35.80;;;24.33;31.43;97810.78;5023675;28;20424;-56
2023/07/13 10:36:30;;;;;;;2.00;1.50;;;23.50;35.30;;;24.41;31.33;97804.09;5031760;28;20049;-53